Time;durP1;ratioP1;P1;durP2;ratioP2;P2;SDS_P1;SDS_P2;PMS_P1;PMS_P2;Temp;Humidity;BMP_temperature;BMP_pressure;BME280_temperature;BME280_humidity;BME280_pressure;Samples;Min_cycle;Max_cycle;Signal;HPM_P1;HPM_P2
2023/01/15 00:01:05;;;;;;;2.35;0.80;;;6.90;99.90;;;;;;5055528;28;20082;-81
2023/01/15 00:03:31;;;;;;;7.80;1.13;;;6.70;99.90;;;;;;5072004;28;20040;-81
2023/01/15 00:06:03;;;;;;;9.20;1.00;;;6.80;99.90;;;;;;5071693;28;20103;-82
2023/01/15 00:08:29;;;;;;;7.25;1.10;;;6.80;99.90;;;;;;5072152;28;20064;-82
2023/01/15 00:10:55;;;;;;;9.73;1.20;;;6.70;99.90;;;;;;5055208;28;20054;-84
2023/01/15 00:13:21;;;;;;;7.30;0.98;;;6.90;99.90;;;;;;5039117;28;20052;-84
2023/01/15 00:15:47;;;;;;;8.65;1.60;;;6.70;99.90;;;;;;5055481;28;20051;-82
2023/01/15 00:18:12;;;;;;;7.22;1.02;;;7.10;99.90;;;;;;5072076;28;20391;-83
2023/01/15 00:20:38;;;;;;;9.32;1.55;;;6.70;99.90;;;;;;5038445;28;20041;-82
2023/01/15 00:23:04;;;;;;;5.57;1.25;;;6.80;99.90;;;;;;5055312;28;20040;-82
2023/01/15 00:28:15;;;;;;;10.27;1.10;;;6.70;99.90;;;;;;5071450;28;20075;-82
2023/01/15 00:30:41;;;;;;;8.48;1.42;;;6.80;99.90;;;;;;5071715;28;20484;-82
2023/01/15 00:33:08;;;;;;;4.30;1.02;;;6.70;99.90;;;;;;5071843;28;20058;-84
2023/01/15 00:35:33;;;;;;;5.15;1.30;;;6.70;99.90;;;;;;5055286;28;20049;-83
2023/01/15 00:37:59;;;;;;;17.58;1.77;;;6.70;99.90;;;;;;5071284;28;20483;-82
2023/01/15 00:40:25;;;;;;;8.73;1.35;;;6.70;99.90;;;;;;5071736;28;20063;-83
2023/01/15 00:42:50;;;;;;;10.23;1.30;;;6.80;99.90;;;;;;5071493;28;20126;-83
2023/01/15 00:45:16;;;;;;;6.35;1.05;;;6.80;99.90;;;;;;5071779;28;20073;-83
2023/01/15 00:47:43;;;;;;;9.35;1.20;;;6.70;99.90;;;;;;5054904;28;20060;-82
2023/01/15 00:50:12;;;;;;;10.75;1.10;;;6.70;99.90;;;;;;5055074;28;20496;-84
2023/01/15 00:52:38;;;;;;;9.25;1.33;;;6.70;99.90;;;;;;5071667;28;20054;-84
2023/01/15 00:55:05;;;;;;;10.10;1.20;;;6.80;99.90;;;;;;5071440;28;20052;-85
2023/01/15 00:57:31;;;;;;;10.57;1.20;;;6.70;99.90;;;;;;5054938;28;20571;-83
2023/01/15 00:59:56;;;;;;;7.53;1.05;;;6.70;99.90;;;;;;5071414;28;20124;-82
2023/01/15 01:02:22;;;;;;;7.82;1.52;;;6.70;99.90;;;;;;5071600;28;20496;-83
2023/01/15 01:04:48;;;;;;;9.38;1.30;;;6.70;99.90;;;;;;5071560;28;20071;-83
2023/01/15 01:07:14;;;;;;;8.40;1.02;;;6.70;99.90;;;;;;5074856;28;20055;-83
2023/01/15 01:09:40;;;;;;;4.75;0.80;;;6.70;99.90;;;;;;5074868;28;20048;-84
2023/01/15 01:12:06;;;;;;;11.40;1.60;;;6.70;99.90;;;;;;5057858;28;20055;-83
2023/01/15 01:14:32;;;;;;;7.50;1.50;;;6.70;99.90;;;;;;5058140;28;20237;-83
2023/01/15 01:16:58;;;;;;;11.43;1.40;;;6.60;99.90;;;;;;5074673;28;20040;-82
2023/01/15 01:19:25;;;;;;;9.68;1.40;;;6.70;99.90;;;;;;5074716;28;20109;-83
2023/01/15 01:21:51;;;;;;;12.45;1.50;;;6.70;99.90;;;;;;5057821;28;20090;-83
2023/01/15 01:24:20;;;;;;;9.38;1.30;;;6.70;99.90;;;;;;5057777;28;20079;-83
2023/01/15 01:26:47;;;;;;;10.75;1.25;;;6.70;99.90;;;;;;5074798;28;20400;-82
2023/01/15 01:29:15;;;;;;;5.57;1.23;;;6.70;99.90;;;;;;5057900;28;20047;-84
2023/01/15 01:31:40;;;;;;;9.98;1.50;;;6.70;99.90;;;;;;5074616;28;20101;-84
2023/01/15 01:34:07;;;;;;;4.57;0.88;;;6.70;99.90;;;;;;5073948;28;20052;-83
2023/01/15 01:36:36;;;;;;;8.65;1.20;;;6.70;99.90;;;;;;5041506;28;20507;-82
2023/01/15 01:39:03;;;;;;;11.73;1.20;;;6.70;99.90;;;;;;5074608;28;20408;-82
2023/01/15 01:41:29;;;;;;;10.65;1.95;;;6.70;99.90;;;;;;5061537;28;20051;-82
2023/01/15 01:44:04;;;;;;;5.68;1.00;;;6.70;99.90;;;;;;5077761;28;20388;-82
2023/01/15 01:46:32;;;;;;;7.72;1.17;;;6.70;99.90;;;;;;5078114;28;20507;-81
2023/01/15 01:49:11;;;;;;;8.48;1.35;;;6.70;99.90;;;;;;5061181;28;20044;-81
2023/01/15 01:51:44;;;;;;;10.80;1.80;;;6.60;99.90;;;;;;5078009;28;20044;-82
2023/01/15 01:54:14;;;;;;;8.82;2.30;;;6.60;99.90;;;;;;5077799;28;20056;-82
2023/01/15 01:56:40;;;;;;;7.95;0.90;;;6.70;99.90;;;;;;5061209;28;20117;-81
2023/01/15 01:59:07;;;;;;;6.78;1.10;;;6.70;99.90;;;;;;5077598;28;20496;-81
2023/01/15 02:01:33;;;;;;;10.18;1.67;;;6.70;99.90;;;;;;5077757;28;20056;-82
2023/01/15 02:03:59;;;;;;;10.50;1.10;;;6.70;99.90;;;;;;5077303;28;20036;-82
2023/01/15 02:06:26;;;;;;;7.93;1.45;;;6.80;99.90;;;;;;5053758;28;20485;-82
2023/01/15 02:08:52;;;;;;;7.65;1.13;;;6.80;99.90;;;;;;5054324;28;20047;-81
2023/01/15 02:11:23;;;;;;;8.10;1.40;;;6.80;99.90;;;;;;5054195;28;20131;-81
2023/01/15 02:14:19;;;;;;;8.32;1.58;;;6.80;99.90;;;;;;5053911;28;20064;-81
2023/01/15 02:17:09;;;;;;;7.20;1.40;;;6.80;99.90;;;;;;5070954;28;20045;-83
2023/01/15 02:19:51;;;;;;;5.10;1.20;;;6.80;99.90;;;;;;5054057;28;20044;-83
2023/01/15 02:22:47;;;;;;;9.20;1.30;;;6.80;99.90;;;;;;5053943;28;20136;-83
2023/01/15 02:25:25;;;;;;;7.43;1.23;;;6.80;99.90;;;;;;5053772;28;20646;-83
2023/01/15 02:28:31;;;;;;;4.78;1.10;;;6.80;99.90;;;;;;5070850;28;20425;-83
2023/01/15 02:31:35;;;;;;;5.82;1.13;;;6.80;99.90;;;;;;5070521;28;20091;-83
2023/01/15 02:34:18;;;;;;;9.57;1.33;;;6.80;99.90;;;;;;5053414;28;20095;-83
2023/01/15 02:36:49;;;;;;;8.68;1.30;;;6.80;99.90;;;;;;5053885;28;20087;-82
2023/01/15 02:39:18;;;;;;;12.13;1.07;;;6.80;99.90;;;;;;5053637;28;20098;-81
2023/01/15 02:41:50;;;;;;;6.57;1.35;;;6.70;99.90;;;;;;5053803;28;20128;-83
2023/01/15 02:44:19;;;;;;;7.75;1.40;;;6.70;99.90;;;;;;5036638;28;20123;-82
2023/01/15 02:46:46;;;;;;;9.32;1.60;;;6.70;99.90;;;;;;5053560;28;20049;-81
2023/01/15 02:49:16;;;;;;;8.18;1.30;;;6.70;99.90;;;;;;5036843;28;20048;-81
2023/01/15 02:51:54;;;;;;;3.78;1.00;;;6.70;99.90;;;;;;5053124;28;20049;-81
2023/01/15 02:54:22;;;;;;;3.70;0.90;;;6.70;99.90;;;;;;5053271;28;20101;-81
2023/01/15 02:56:48;;;;;;;7.75;1.48;;;6.70;99.90;;;;;;5053482;28;20041;-81
2023/01/15 02:59:23;;;;;;;6.47;1.35;;;6.70;99.90;;;;;;5053249;28;20049;-81
2023/01/15 03:02:01;;;;;;;11.73;1.90;;;6.70;99.90;;;;;;5053468;28;20045;-82
2023/01/15 03:04:33;;;;;;;6.60;1.30;;;6.70;99.90;;;;;;5053390;28;20045;-84
2023/01/15 03:07:37;;;;;;;8.93;1.38;;;6.70;99.90;;;;;;5052762;28;20493;-88
2023/01/15 03:10:04;;;;;;;6.00;1.20;;;6.80;99.90;;;;;;5044584;28;20060;-83
2023/01/15 03:13:01;;;;;;;7.97;1.20;;;6.80;99.90;;;;;;5053075;28;20501;-83
2023/01/15 03:18:13;;;;;;;6.88;1.38;;;6.70;99.90;;;;;;5052952;28;20056;-84
2023/01/15 03:20:42;;;;;;;9.05;1.40;;;6.70;99.90;;;;;;5036396;28;20049;-83
2023/01/15 03:23:12;;;;;;;9.90;1.25;;;6.80;99.90;;;;;;5052288;28;20102;-83
2023/01/15 03:25:49;;;;;;;10.90;1.45;;;6.80;99.90;;;;;;5052769;28;20056;-84
2023/01/15 03:28:24;;;;;;;6.63;1.00;;;6.80;1.00;;;;;;5052722;28;20532;-84
2023/01/15 03:30:50;;;;;;;9.98;2.85;;;6.70;84.50;;;;;;5053305;28;20486;-81
2023/01/15 03:33:17;;;;;;;16.77;2.05;;;6.70;1.00;;;;;;5053678;28;20049;-84
2023/01/15 03:36:10;;;;;;;9.65;1.30;;;6.70;48.10;;;;;;5052775;28;20405;-83
2023/01/15 03:38:38;;;;;;;8.02;1.52;;;6.70;1.00;;;;;;5052686;28;20084;-83
2023/01/15 03:41:31;;;;;;;5.63;0.90;;;6.70;1.00;;;;;;5052635;28;20036;-83
2023/01/15 03:44:12;;;;;;;8.60;1.38;;;6.60;1.00;;;;;;5052401;28;20425;-84
2023/01/15 03:46:47;;;;;;;7.47;1.48;;;6.70;1.00;;;;;;5052603;28;20037;-84
2023/01/15 03:49:37;;;;;;;12.02;1.27;;;6.70;99.90;;;;;;5052666;28;20063;-84
2023/01/15 03:52:15;;;;;;;5.45;1.20;;;6.70;99.90;;;;;;5052232;28;20087;-83
2023/01/15 03:55:07;;;;;;;9.82;2.15;;;6.60;1.00;;;;;;5052384;28;20041;-83
2023/01/15 03:57:38;;;;;;;10.32;1.85;;;6.70;1.00;;;;;;5052196;28;20392;-83
2023/01/15 04:00:20;;;;;;;6.35;1.40;;;6.70;99.90;;;;;;5052372;28;20128;-85
2023/01/15 04:02:47;;;;;;;10.98;1.48;;;6.60;1.00;;;;;;5051138;28;20482;-83
2023/01/15 04:05:14;;;;;;;13.60;2.20;;;6.70;1.00;;;;;;5039874;28;20056;-84
2023/01/15 04:07:41;;;;;;;8.63;1.42;;;6.60;99.90;;;;;;5055722;28;20045;-84
2023/01/15 04:10:08;;;;;;;6.70;1.38;;;6.70;99.90;;;;;;5072219;28;20552;-84
2023/01/15 04:12:34;;;;;;;4.00;0.98;;;6.70;99.90;;;;;;5071988;28;20481;-83
2023/01/15 04:14:59;;;;;;;10.40;1.75;;;6.70;99.90;;;;;;5055490;28;20059;-84
2023/01/15 04:17:25;;;;;;;10.00;1.30;;;6.70;99.90;;;;;;5071872;28;20048;-84
2023/01/15 04:19:51;;;;;;;14.18;1.67;;;6.70;99.90;;;;;;5038902;28;20053;-84
2023/01/15 04:22:17;;;;;;;8.63;1.67;;;6.70;99.90;;;;;;5055198;28;20040;-83
2023/01/15 04:24:42;;;;;;;4.57;0.93;;;6.60;99.90;;;;;;5071585;28;20052;-84
2023/01/15 04:27:08;;;;;;;5.72;1.15;;;6.70;99.90;;;;;;5054959;28;20098;-84
2023/01/15 04:29:34;;;;;;;11.68;1.35;;;6.70;99.90;;;;;;5055102;28;20055;-83
2023/01/15 04:31:59;;;;;;;9.82;1.27;;;6.60;99.90;;;;;;5072309;28;20474;-82
2023/01/15 04:34:27;;;;;;;14.90;1.63;;;6.70;99.90;;;;;;5038363;28;20044;-82
2023/01/15 04:36:53;;;;;;;6.13;1.63;;;6.70;99.90;;;;;;5055176;28;20105;-86
2023/01/15 04:39:20;;;;;;;5.95;1.25;;;6.70;99.90;;;;;;5055055;28;20071;-85
2023/01/15 04:44:31;;;;;;;6.97;1.27;;;6.80;99.90;;;;;;5057181;28;20044;-88
2023/01/15 04:46:58;;;;;;;11.63;1.65;;;6.60;99.90;;;;;;5071791;28;20131;-86
2023/01/15 04:49:25;;;;;;;10.77;1.42;;;6.60;76.40;;;;;;5055196;28;20417;-85
2023/01/15 04:51:51;;;;;;;5.57;0.98;;;6.60;10.90;;;;;;5054981;28;20080;-85
2023/01/15 04:54:17;;;;;;;8.43;1.60;;;6.50;99.90;;;;;;5054681;28;20082;-84
2023/01/15 04:56:49;;;;;;;15.88;1.60;;;6.50;99.90;;;;;;5054705;28;20053;-86
2023/01/15 04:59:16;;;;;;;12.27;2.30;;;6.40;99.90;;;;;;5071832;28;20044;-86
2023/01/15 05:01:42;;;;;;;10.90;1.35;;;6.40;99.90;;;;;;5071525;28;20397;-86
2023/01/15 05:04:08;;;;;;;7.20;1.10;;;6.40;99.90;;;;;;5071391;28;20066;-84
2023/01/15 05:06:33;;;;;;;11.30;1.55;;;6.40;99.90;;;;;;5070730;28;20135;-85
2023/01/15 05:09:00;;;;;;;8.35;1.60;;;6.40;99.90;;;;;;5071321;28;20084;-83
2023/01/15 05:11:27;;;;;;;9.88;2.03;;;6.40;99.90;;;;;;5054663;28;20102;-82
2023/01/15 05:13:53;;;;;;;11.52;1.10;;;6.50;99.90;;;;;;5071859;28;20468;-82
2023/01/15 05:16:25;;;;;;;11.10;1.13;;;6.40;99.90;;;;;;5058811;28;20051;-82
2023/01/15 05:18:52;;;;;;;12.15;1.70;;;6.40;99.90;;;;;;5075212;28;20044;-82
2023/01/15 05:21:21;;;;;;;14.52;1.67;;;6.30;99.90;;;;;;5058600;28;20139;-82
2023/01/15 05:23:48;;;;;;;10.75;1.40;;;6.30;99.90;;;;;;5074768;28;20051;-82
2023/01/15 05:26:15;;;;;;;10.13;1.67;;;6.30;99.90;;;;;;5074710;28;20119;-83
2023/01/15 05:28:41;;;;;;;12.30;2.13;;;6.30;99.90;;;;;;5058175;28;20541;-83
2023/01/15 05:31:12;;;;;;;7.30;1.10;;;6.40;99.90;;;;;;5058349;28;20098;-83
2023/01/15 05:33:38;;;;;;;;;;;6.10;99.90;;;;;;5058574;28;20198;-84
2023/01/15 05:36:07;;;;;;;7.47;1.70;;;6.10;99.90;;;;;;5075110;28;20405;-82
2023/01/15 05:38:33;;;;;;;7.65;1.30;;;6.10;99.90;;;;;;5074676;28;20436;-82
2023/01/15 05:40:58;;;;;;;7.10;0.82;;;6.10;99.90;;;;;;5074871;28;20541;-82
2023/01/15 05:43:24;;;;;;;10.88;1.83;;;6.10;99.90;;;;;;5058181;28;20120;-83
2023/01/15 05:45:50;;;;;;;18.50;1.77;;;6.30;99.90;;;;;;5057832;28;20477;-81
2023/01/15 05:48:16;;;;;;;10.07;1.55;;;6.00;99.90;;;;;;5074725;28;20044;-83
2023/01/15 05:50:41;;;;;;;4.20;0.98;;;6.10;99.90;;;;;;5057831;28;20044;-83
2023/01/15 05:53:07;;;;;;;7.07;1.08;;;6.10;99.90;;;;;;5057985;28;20044;-84
2023/01/15 05:55:33;;;;;;;9.13;1.25;;;6.00;99.90;;;;;;5057696;28;20080;-83
2023/01/15 05:57:59;;;;;;;12.80;1.60;;;5.90;99.90;;;;;;5057914;28;20041;-85
2023/01/15 06:00:24;;;;;;;10.40;1.35;;;5.90;99.90;;;;;;5040689;28;20102;-83
2023/01/15 06:02:50;;;;;;;7.38;1.30;;;5.90;99.90;;;;;;5057546;28;20041;-83
2023/01/15 06:05:19;;;;;;;7.75;1.23;;;5.80;99.90;;;;;;5059865;28;20484;-84
2023/01/15 06:07:51;;;;;;;5.95;1.23;;;6.00;1.00;;;;;;5077572;28;20097;-84
2023/01/15 06:10:18;;;;;;;8.02;1.60;;;6.00;94.60;;;;;;5077832;28;20044;-83
2023/01/15 06:12:43;;;;;;;6.47;1.30;;;5.90;99.90;;;;;;5060622;28;20120;-83
2023/01/15 06:15:10;;;;;;;14.32;1.70;;;5.90;19.50;;;;;;5077591;28;20040;-84
2023/01/15 06:17:36;;;;;;;9.15;1.55;;;5.80;99.90;;;;;;5060642;28;20047;-84
2023/01/15 06:20:02;;;;;;;7.68;1.38;;;5.80;99.90;;;;;;5060737;28;20048;-83
2023/01/15 06:22:28;;;;;;;5.15;1.23;;;5.80;99.90;;;;;;5060694;28;20448;-84
2023/01/15 06:24:54;;;;;;;6.70;1.38;;;5.80;99.90;;;;;;5060488;28;20083;-88
2023/01/15 06:27:20;;;;;;;7.28;1.20;;;5.70;99.90;;;;;;5042820;28;20119;-86
2023/01/15 06:29:45;;;;;;;9.00;1.20;;;5.90;1.00;;;;;;5060515;28;20369;-83
2023/01/15 06:32:11;;;;;;;13.63;2.05;;;5.80;1.00;;;;;;5060467;28;20055;-83
2023/01/15 06:34:37;;;;;;;4.82;1.13;;;6.00;1.00;;;;;;5060320;28;20101;-83
2023/01/15 06:37:02;;;;;;;9.48;1.52;;;5.70;38.10;;;;;;5027116;28;20047;-83
2023/01/15 06:39:28;;;;;;;6.22;1.20;;;5.60;99.90;;;;;;5060523;28;20130;-82
2023/01/15 06:47:23;;;;;;;5.65;1.05;;;5.80;99.90;;;;;;5076663;28;20396;-83
2023/01/15 06:49:53;;;;;;;7.70;1.23;;;5.50;99.90;;;;;;5060222;28;20113;-81
2023/01/15 06:52:20;;;;;;;9.85;1.35;;;5.40;1.00;;;;;;5076966;28;20056;-83
2023/01/15 06:54:46;;;;;;;5.88;0.90;;;5.30;1.00;;;;;;5076679;28;20059;-82
2023/01/15 06:57:11;;;;;;;8.65;1.42;;;5.30;1.00;;;;;;5059869;28;20481;-89
2023/01/15 06:59:37;;;;;;;7.95;1.45;;;5.30;1.00;;;;;;5058323;28;20059;-89
2023/01/15 07:02:03;;;;;;;6.30;1.00;;;5.30;1.00;;;;;;5058848;28;20059;-87
2023/01/15 07:04:29;;;;;;;9.18;1.48;;;5.40;1.00;;;;;;5057747;28;20561;-85
2023/01/15 07:06:55;;;;;;;7.60;2.00;;;5.40;1.00;;;;;;5074026;28;20087;-86
2023/01/15 07:09:21;;;;;;;10.98;1.20;;;5.40;1.00;;;;;;5075142;28;20060;-87
2023/01/15 07:11:49;;;;;;;8.88;1.40;;;5.40;99.90;;;;;;5057644;28;20051;-86
2023/01/15 07:14:23;;;;;;;7.05;1.67;;;5.50;99.90;;;;;;5074915;28;20040;-86
2023/01/15 07:16:50;;;;;;;6.38;1.38;;;5.50;99.90;;;;;;5074592;28;20500;-86
2023/01/15 07:19:16;;;;;;;4.63;1.30;;;5.50;99.90;;;;;;5074745;28;20126;-88
2023/01/15 07:21:42;;;;;;;5.40;1.15;;;5.50;99.90;;;;;;5074324;28;20412;-86
2023/01/15 07:24:09;;;;;;;8.88;1.30;;;5.50;99.90;;;;;;5057110;28;20044;-84
2023/01/15 07:26:36;;;;;;;3.60;1.00;;;6.10;99.90;;;;;;5074264;28;20048;-87
2023/01/15 07:29:02;;;;;;;4.78;1.20;;;5.40;99.90;;;;;;5057417;28;20124;-86
2023/01/15 07:31:28;;;;;;;6.53;1.25;;;5.40;99.90;;;;;;5057786;28;20048;-85
2023/01/15 07:33:57;;;;;;;12.30;2.05;;;5.40;99.90;;;;;;5057357;28;20097;-85
2023/01/15 07:36:24;;;;;;;3.67;1.15;;;5.30;99.90;;;;;;5073651;28;20048;-85
2023/01/15 07:38:50;;;;;;;8.77;1.67;;;5.40;99.90;;;;;;5057631;28;20139;-85
2023/01/15 07:49:49;;;;;;;12.73;1.42;;;5.40;99.90;;;;;;5074315;28;20055;-88
2023/01/15 07:52:17;;;;;;;11.52;1.35;;;5.30;1.00;;;;;;5074336;28;20739;-91
2023/01/15 07:54:47;;;;;;;7.22;1.10;;;5.30;1.00;;;;;;5058272;28;20087;-86
2023/01/15 07:57:16;;;;;;;9.00;1.33;;;5.40;99.90;;;;;;5057330;28;20145;-86
2023/01/15 07:59:42;;;;;;;7.03;1.42;;;5.30;1.00;;;;;;5075427;28;20075;-87
2023/01/15 08:02:08;;;;;;;6.85;0.95;;;5.40;1.00;;;;;;5074940;28;20504;-88
2023/01/15 08:04:34;;;;;;;6.85;1.42;;;5.40;1.00;;;;;;5075064;28;20047;-87
2023/01/15 08:07:01;;;;;;;5.38;1.17;;;5.40;1.00;;;;;;5075107;28;20056;-86
2023/01/15 08:09:27;;;;;;;8.07;1.27;;;5.40;99.90;;;;;;5059042;28;20113;-88
2023/01/15 08:17:22;;;;;;;4.40;0.93;;;5.60;1.00;;;;;;5075626;28;20044;-86
2023/01/15 08:19:47;;;;;;;6.47;1.00;;;5.60;99.90;;;;;;5058788;28;20055;-86
2023/01/15 08:22:13;;;;;;;7.03;0.70;;;5.70;1.00;;;;;;5075220;28;20060;-86
2023/01/15 08:24:39;;;;;;;6.15;1.20;;;5.70;99.90;;;;;;5058532;28;20043;-87
2023/01/15 08:27:05;;;;;;;7.07;0.90;;;5.90;99.90;;;;;;5058411;28;20476;-88
2023/01/15 08:29:30;;;;;;;5.55;0.90;;;5.70;99.90;;;;;;5075224;28;20052;-87
2023/01/15 08:31:56;;;;;;;9.30;1.42;;;5.70;99.90;;;;;;5058580;28;20052;-88
2023/01/15 08:34:23;;;;;;;5.63;0.98;;;5.70;1.00;;;;;;5042063;28;20390;-87
2023/01/15 08:36:48;;;;;;;9.27;1.35;;;5.70;1.00;;;;;;5075458;28;20442;-87
2023/01/15 08:39:14;;;;;;;7.40;0.80;;;5.90;99.90;;;;;;5041997;28;20054;-86
2023/01/15 08:41:40;;;;;;;4.13;0.80;;;5.80;1.00;;;;;;5041309;28;20067;-87
2023/01/15 08:44:06;;;;;;;8.35;1.02;;;6.00;99.90;;;;;;5038354;28;20083;-88
2023/01/15 08:46:32;;;;;;;7.15;1.13;;;6.00;99.90;;;;;;5036047;28;20053;-88
2023/01/15 08:48:57;;;;;;;5.68;0.90;;;6.10;99.90;;;;;;5053777;28;20511;-89
2023/01/15 08:51:23;;;;;;;7.53;1.63;;;6.20;99.90;;;;;;4725263;28;9999679;-86
2023/01/15 08:53:49;;;;;;;6.68;1.00;;;6.40;52.90;;;;;;5058849;28;20282;-86
2023/01/15 08:56:17;;;;;;;6.90;0.82;;;6.30;99.90;;;;;;5060026;28;20451;-87
2023/01/15 08:58:43;;;;;;;10.90;1.10;;;6.20;99.90;;;;;;5059671;28;20067;-86
2023/01/15 09:01:14;;;;;;;7.30;1.10;;;6.10;91.70;;;;;;5043205;28;20121;-86
2023/01/15 09:03:43;;;;;;;4.70;0.70;;;5.90;99.90;;;;;;5056765;28;20049;-86
2023/01/15 09:06:12;;;;;;;4.97;1.00;;;5.80;99.90;;;;;;5056239;28;20653;-87
2023/01/15 09:08:38;;;;;;;5.13;1.05;;;5.70;99.90;;;;;;5056543;28;20130;-86
2023/01/15 09:11:08;;;;;;;4.97;0.95;;;5.50;99.90;;;;;;5057297;28;20485;-87
2023/01/15 09:13:36;;;;;;;8.98;1.35;;;5.10;99.90;;;;;;5056910;28;20108;-85
2023/01/15 09:16:04;;;;;;;5.07;1.08;;;5.00;1.00;;;;;;5056912;28;20370;-86
2023/01/15 09:18:31;;;;;;;4.85;1.20;;;4.90;1.00;;;;;;5040194;28;20044;-86
2023/01/15 09:20:56;;;;;;;11.88;1.42;;;5.00;1.00;;;;;;5056072;28;20396;-86
2023/01/15 09:23:23;;;;;;;6.35;0.82;;;5.00;1.00;;;;;;5023297;28;20041;-86
2023/01/15 09:26:00;;;;;;;4.75;1.20;;;5.10;99.90;;;;;;5056909;28;20375;-86
2023/01/15 09:28:29;;;;;;;4.25;0.77;;;5.20;99.90;;;;;;5056864;28;20063;-86
2023/01/15 09:30:55;;;;;;;6.55;0.77;;;5.20;99.90;;;;;;5040186;28;20048;-85
2023/01/15 09:33:21;;;;;;;10.73;1.05;;;5.20;1.00;;;;;;5055709;28;20048;-85
2023/01/15 09:35:47;;;;;;;8.98;1.20;;;5.20;1.00;;;;;;5056473;28;20044;-86
2023/01/15 09:38:15;;;;;;;5.55;1.10;;;5.10;1.00;;;;;;5056085;28;20109;-86
2023/01/15 09:41:07;;;;;;;7.35;1.00;;;5.10;99.90;;;;;;5056443;28;20058;-86
2023/01/15 09:43:41;;;;;;;7.82;1.30;;;5.10;99.90;;;;;;5055895;28;20485;-88
2023/01/15 09:46:18;;;;;;;5.97;1.13;;;5.00;1.00;;;;;;5055864;28;20485;-89
2023/01/15 09:49:12;;;;;;;9.43;1.15;;;4.70;99.90;;;;;;5056291;28;20049;-86
2023/01/15 09:51:59;;;;;;;8.63;0.82;;;4.60;99.90;;;;;;5056084;28;20076;-86
2023/01/15 09:54:55;;;;;;;5.68;1.00;;;5.00;99.90;;;;;;5039318;28;20075;-87
2023/01/15 09:57:23;;;;;;;5.25;1.08;;;4.70;99.90;;;;;;5038723;28;20052;-86
2023/01/15 09:59:51;;;;;;;4.00;1.05;;;5.70;99.90;;;;;;5039211;28;20098;-86
2023/01/15 10:02:19;;;;;;;3.60;0.90;;;5.00;99.90;;;;;;5039391;28;20055;-86
2023/01/15 10:04:49;;;;;;;6.57;1.25;;;5.10;99.90;;;;;;5038574;28;20063;-86
2023/01/15 10:07:17;;;;;;;11.68;1.60;;;5.20;99.90;;;;;;5038489;28;20056;-89
2023/01/15 10:09:44;;;;;;;4.72;0.93;;;5.30;99.90;;;;;;5038470;28;20065;-87
2023/01/15 10:12:34;;;;;;;4.78;0.90;;;5.40;23.50;;;;;;5022314;28;20094;-88
2023/01/15 10:15:04;;;;;;;3.53;1.10;;;5.50;74.50;;;;;;5055399;28;20048;-88
2023/01/15 10:17:40;;;;;;;4.75;0.80;;;5.60;1.00;;;;;;5038624;28;20056;-87
2023/01/15 10:20:30;;;;;;;3.03;0.98;;;5.70;1.00;;;;;;5039108;28;20059;-88
2023/01/15 10:23:24;;;;;;;2.33;0.85;;;5.70;1.00;;;;;;5055593;28;20051;-88
2023/01/15 10:26:16;;;;;;;3.53;0.98;;;5.80;1.00;;;;;;5038999;28;20055;-85
2023/01/15 10:28:48;;;;;;;;;;;5.90;99.90;;;;;;5042599;28;20049;-89
2023/01/15 10:31:24;;;;;;;8.35;1.05;;;6.00;99.90;;;;;;5072238;28;19970;-88
2023/01/15 10:34:20;;;;;;;5.07;0.88;;;5.90;99.90;;;;;;5038948;28;20401;-87
2023/01/15 10:37:20;;;;;;;5.57;1.23;;;5.90;99.90;;;;;;5039141;28;20059;-86
2023/01/15 10:40:07;;;;;;;6.30;1.17;;;6.00;99.90;;;;;;5005218;28;20139;-87
2023/01/15 10:42:39;;;;;;;3.25;1.20;;;6.20;99.90;;;;;;5055149;28;20623;-86
2023/01/15 10:45:22;;;;;;;3.25;1.23;;;6.20;99.90;;;;;;5038144;28;20133;-85
2023/01/15 10:47:56;;;;;;;5.80;1.23;;;6.30;99.90;;;;;;5038689;28;20386;-86
2023/01/15 10:50:24;;;;;;;8.52;1.23;;;6.30;99.90;;;;;;5048960;28;20129;-87
2023/01/15 10:53:15;;;;;;;8.10;1.10;;;6.30;99.90;;;;;;5058632;28;20189;-89
2023/01/15 10:55:49;;;;;;;5.13;0.80;;;6.40;1.00;;;;;;5075397;28;20116;-85
2023/01/15 10:58:19;;;;;;;6.22;1.02;;;6.30;1.00;;;;;;5075227;28;20119;-87
2023/01/15 11:01:00;;;;;;;5.32;1.13;;;6.30;63.50;;;;;;5074839;28;20051;-86
2023/01/15 11:03:43;;;;;;;8.30;2.33;;;6.30;99.90;;;;;;5074498;28;20709;-86
2023/01/15 11:06:21;;;;;;;9.82;1.63;;;6.20;99.90;;;;;;5074107;28;20135;-89
2023/01/15 11:08:52;;;;;;;5.05;1.23;;;6.20;1.00;;;;;;5074624;28;20507;-88
2023/01/15 11:11:18;;;;;;;;;;;6.30;99.90;;;;;;5058747;28;20110;-85
2023/01/15 11:19:35;;;;;;;4.60;0.80;;;6.60;99.90;;;;;;5073588;28;20099;-86
2023/01/15 11:22:18;;;;;;;8.35;1.00;;;6.50;99.90;;;;;;5073684;28;20044;-86
2023/01/15 11:24:49;;;;;;;4.88;1.00;;;6.40;1.00;;;;;;5054666;28;20075;-89
2023/01/15 11:27:24;;;;;;;2.42;0.70;;;6.40;99.90;;;;;;5057389;28;20047;-87
2023/01/15 11:29:58;;;;;;;6.65;1.30;;;6.30;99.90;;;;;;5055267;28;20044;-86
2023/01/15 11:32:33;;;;;;;4.95;1.05;;;6.40;99.90;;;;;;5054091;28;20052;-86
2023/01/15 11:35:02;;;;;;;7.57;1.40;;;6.40;99.90;;;;;;5067967;28;20083;-87
2023/01/15 11:37:29;;;;;;;7.90;1.38;;;6.40;99.90;;;;;;5054251;28;20075;-88
2023/01/15 11:40:03;;;;;;;3.28;0.85;;;6.50;99.90;;;;;;5065108;28;20033;-87
2023/01/15 11:51:14;;;;;;;2.97;0.98;;;7.30;1.00;;;;;;4993697;28;20053;-87
2023/01/15 11:53:53;;;;;;;7.22;1.52;;;7.40;99.90;;;;;;5073553;28;20048;-87
2023/01/15 11:56:27;;;;;;;7.30;1.20;;;7.10;1.00;;;;;;5056819;28;20077;-90
2023/01/15 11:58:56;;;;;;;10.43;1.42;;;6.90;99.90;;;;;;5073470;28;20051;-86
2023/01/15 12:01:37;;;;;;;7.50;1.25;;;6.90;99.90;;;;;;5073437;28;20119;-86
2023/01/15 12:04:42;;;;;;;8.88;1.67;;;6.90;1.00;;;;;;5053931;28;20059;-87
2023/01/15 12:07:12;;;;;;;9.77;1.60;;;6.80;18.50;;;;;;5071537;28;20488;-87
2023/01/15 12:09:53;;;;;;;3.97;0.85;;;6.80;99.90;;;;;;5072564;28;20048;-89
2023/01/15 12:12:41;;;;;;;15.25;1.45;;;6.80;99.90;;;;;;5061873;28;20055;-88
2023/01/15 12:15:11;;;;;;;8.93;1.33;;;6.80;99.90;;;;;;5057887;28;20488;-89
2023/01/15 12:17:37;;;;;;;9.20;1.58;;;6.90;1.00;;;;;;5056721;28;20496;-86
2023/01/15 12:20:20;;;;;;;5.03;1.10;;;7.00;99.90;;;;;;5074062;28;20094;-88
2023/01/15 12:23:11;;;;;;;9.73;1.20;;;7.00;1.00;;;;;;5073027;28;20079;-89
2023/01/15 12:25:46;;;;;;;11.20;1.60;;;7.00;1.00;;;;;;5073301;28;20060;-86
2023/01/15 12:28:17;;;;;;;7.13;1.10;;;6.90;99.90;;;;;;5073917;28;20044;-84
2023/01/15 12:31:41;;;;;;;6.73;1.40;;;6.80;99.90;;;;;;5073884;28;20043;-85
2023/01/15 12:34:31;;;;;;;3.47;1.00;;;6.60;1.00;;;;;;5008943;28;20136;-87
2023/01/15 12:37:09;;;;;;;9.68;1.02;;;6.50;70.80;;;;;;4993294;28;20637;-86
2023/01/15 12:39:50;;;;;;;4.78;1.40;;;6.50;29.10;;;;;;5050754;28;20464;-87
2023/01/15 12:45:13;;;;;;;5.32;1.20;;;6.50;89.80;;;;;;5073257;28;20131;-87
2023/01/15 12:47:51;;;;;;;13.60;1.80;;;6.50;1.00;;;;;;5073507;28;20048;-86
2023/01/15 12:50:17;;;;;;;7.97;1.38;;;6.60;97.10;;;;;;5073727;28;20040;-85
2023/01/15 12:52:47;;;;;;;8.50;1.58;;;6.50;32.50;;;;;;5073369;28;20048;-88
2023/01/15 12:55:21;;;;;;;8.85;1.45;;;6.70;99.90;;;;;;5073652;28;20156;-84
2023/01/15 12:57:54;;;;;;;8.90;1.77;;;6.40;1.00;;;;;;5056827;28;20052;-85
2023/01/15 13:00:31;;;;;;;5.00;1.05;;;6.20;99.90;;;;;;5074276;28;20088;-84
2023/01/15 13:03:46;;;;;;;5.88;1.80;;;6.20;99.90;;;;;;5042544;28;20123;-85
2023/01/15 13:06:13;;;;;;;9.65;1.58;;;6.10;99.90;;;;;;5050501;28;20111;-85
2023/01/15 13:09:04;;;;;;;10.68;1.60;;;6.00;99.90;;;;;;5050627;28;20059;-85
2023/01/15 13:11:30;;;;;;;12.27;1.65;;;5.90;99.90;;;;;;5053698;28;20043;-87
2023/01/15 13:13:58;;;;;;;6.93;1.38;;;5.80;99.90;;;;;;5070652;28;20044;-86
2023/01/15 13:16:33;;;;;;;12.32;1.40;;;5.60;99.90;;;;;;5035719;28;20054;-85
2023/01/15 13:19:23;;;;;;;10.18;1.05;;;5.40;99.90;;;;;;5054327;28;20488;-85
2023/01/15 13:21:53;;;;;;;12.13;2.22;;;5.50;99.90;;;;;;5054173;28;20044;-84
2023/01/15 13:24:25;;;;;;;4.93;0.90;;;5.30;99.90;;;;;;5071128;28;20082;-86
2023/01/15 13:27:09;;;;;;;4.53;0.93;;;5.30;99.90;;;;;;5070746;28;20037;-84
2023/01/15 13:29:45;;;;;;;3.38;0.52;;;5.00;99.90;;;;;;5071584;28;20048;-88
2023/01/15 13:32:26;;;;;;;4.25;0.65;;;5.00;99.90;;;;;;5071313;28;20103;-86
2023/01/15 13:35:10;;;;;;;2.78;0.60;;;4.70;99.90;;;;;;5054279;28;20098;-84
2023/01/15 13:37:42;;;;;;;4.18;0.70;;;4.90;99.90;;;;;;5058004;28;20060;-93
2023/01/15 13:40:34;;;;;;;6.35;0.82;;;4.80;99.90;;;;;;5057777;28;20048;-85
2023/01/15 13:43:01;;;;;;;5.47;0.88;;;5.00;99.90;;;;;;5054107;28;20045;-85
2023/01/15 13:45:36;;;;;;;2.38;0.30;;;5.10;99.90;;;;;;5054264;28;20045;-85
2023/01/15 13:48:18;;;;;;;5.40;0.60;;;5.10;99.90;;;;;;5054412;28;20080;-86
2023/01/15 13:50:53;;;;;;;1.67;0.60;;;4.90;99.90;;;;;;5050996;28;20123;-86
2023/01/15 13:53:33;;;;;;;2.78;0.60;;;5.10;99.90;;;;;;5073979;28;20443;-86
2023/01/15 13:56:06;;;;;;;4.97;0.65;;;5.10;99.90;;;;;;5074074;28;20048;-87
2023/01/15 13:58:36;;;;;;;2.38;0.55;;;4.90;99.90;;;;;;5073916;28;20461;-86
2023/01/15 14:01:24;;;;;;;3.13;0.50;;;5.20;99.90;;;;;;5049829;28;20055;-86
2023/01/15 14:04:11;;;;;;;1.75;0.50;;;5.20;99.90;;;;;;5037260;28;20161;-86
2023/01/15 14:06:40;;;;;;;8.02;0.60;;;5.20;99.90;;;;;;5036921;28;20448;-86